Terminal Aerodrome Forecast
Issued by NWS Buffalo, NY

Home | Current Version | Previous Version | Text Only | Print | Product List | Glossary On
Versions: 1 2 3 4 5 6 7 8 9 10 11 12 13 14 15 16 17 18 19 20 21 22 23 24 25 26 27 28 29
000
FTUS41 KBUF 270500
TAFROC
TAF
KROC 270530Z 2706/2806 21003KT P6SM BKN250
     FM271100 20005KT P6SM BKN030 BKN250
     FM271300 20006KT P6SM BKN250
     FM272100 19009KT P6SM BKN060
     FM280300 22014G21KT P6SM VCSH OVC040=

USA.gov is the U.S. government's official web portal to all federal, state and local government web resources and services.